Eden, Georgia
Current Conditions -  °F | °C
As of 4:53 AM on Saturday 20 Dec 2014 (Local Time) from KSAV Reporting Station
Haze Haze  
Wind Chill: 51°   Ceiling: 7000
Heat Index: 51°   Visibility: 5mi
Dew Point: 49°   Wind: 0mph
Humidity: 92%   Direction: NA
Pressure: 30.14"   Gusts: NA
Location:  32.17°N, 81.39°W
Report Text: KSAV 200953Z AUTO 00000KT 5SM BR FEW049 OVC070 11/09 A3014 RMK AO2 RAB0858E39 SLP204 P0001 T01060094 TSNO
Loading
Personal Weather Stations






























Interactive Weather Map New forecast layout! Learn more

10-Day Weather Forecast

Advertisements
Track Severe Weather on mobile